createdAt,value
2022-11-16T00:01:34.677Z,91.28
2022-11-16T00:04:03.484Z,89.47
2022-11-16T00:06:30.479Z,93.07
2022-11-16T00:09:24.799Z,95.82
2022-11-16T00:12:02.352Z,95.53
2022-11-16T00:14:32.813Z,102.28
2022-11-16T00:17:01.839Z,107.85
2022-11-16T00:19:29.256Z,113.25
2022-11-16T00:21:56.278Z,112.28
2022-11-16T00:24:23.849Z,110.05
2022-11-16T00:27:09.462Z,108.13
2022-11-16T00:29:36.948Z,107.72
2022-11-16T00:32:04.513Z,107.80
2022-11-16T00:34:31.684Z,107.35
2022-11-16T00:36:58.711Z,103.43
2022-11-16T00:39:25.596Z,102.43
2022-11-16T00:41:52.467Z,105.30
2022-11-16T00:44:19.449Z,106.10
2022-11-16T00:46:46.633Z,108.10
2022-11-16T00:49:13.592Z,108.57
2022-11-16T00:51:40.633Z,103.57
2022-11-16T00:54:09.463Z,104.88
2022-11-16T00:56:38.056Z,100.00
2022-11-16T00:59:08.165Z,100.95
2022-11-16T01:01:35.163Z,100.72
2022-11-16T01:04:02.420Z,104.13
2022-11-16T01:06:29.384Z,100.75
2022-11-16T01:08:56.307Z,102.95
2022-11-16T01:11:42.524Z,104.72
2022-11-16T01:14:10.419Z,102.00
2022-11-16T01:16:37.651Z,102.90
2022-11-16T01:19:05.288Z,99.93
2022-11-16T01:21:33.209Z,97.93
2022-11-16T01:24:00.278Z,97.50
2022-11-16T01:26:27.446Z,96.25
2022-11-16T01:28:54.304Z,94.65
2022-11-16T01:31:21.669Z,90.65
2022-11-16T01:33:51.379Z,89.47
2022-11-16T01:36:24.785Z,91.93
2022-11-16T01:38:53.353Z,89.78
2022-11-16T01:41:25.910Z,84.53
2022-11-16T01:44:25.147Z,89.60
2022-11-16T01:46:55.442Z,87.90
2022-11-16T01:49:25.549Z,83.65
2022-11-16T01:52:04.797Z,79.47
2022-11-16T01:54:38.797Z,80.28
2022-11-16T01:57:11.287Z,78.80
2022-11-16T01:59:53.578Z,75.05
2022-11-16T02:02:22.813Z,74.45
2022-11-16T02:04:52.095Z,75.22
2022-11-16T02:08:24.533Z,73.18
2022-11-16T02:11:16.497Z,70.65
2022-11-16T02:13:55.833Z,71.45
2022-11-16T02:16:28.860Z,74.32
2022-11-16T02:19:12.024Z,77.78
2022-11-16T02:21:57.761Z,71.97
2022-11-16T02:24:26.417Z,70.38
2022-11-16T02:26:56.332Z,72.32
2022-11-16T02:29:40.107Z,72.78
2022-11-16T02:32:15.626Z,68.32
2022-11-16T02:34:57.636Z,69.22
2022-11-16T02:37:28.337Z,70.28
2022-11-16T02:40:01.248Z,69.28
2022-11-16T02:42:51.312Z,68.03
2022-11-16T02:45:26.246Z,65.85
2022-11-16T02:47:56.988Z,64.28
2022-11-16T02:50:26.359Z,65.03
2022-11-16T02:52:55.469Z,66.55
2022-11-16T02:55:24.722Z,67.10
2022-11-16T02:58:03.955Z,64.10
2022-11-16T03:01:04.691Z,64.05
2022-11-16T03:03:35.736Z,64.15
2022-11-16T03:06:11.672Z,64.57
2022-11-16T03:08:45.010Z,62.53
2022-11-16T03:11:31.781Z,59.30
2022-11-16T03:14:05.787Z,56.57
2022-11-16T03:16:43.617Z,54.88
2022-11-16T03:19:14.555Z,58.45
2022-11-16T03:21:47.880Z,55.80
2022-11-16T03:24:15.668Z,58.40
2022-11-16T03:27:06.613Z,58.20
2022-11-16T03:30:14.953Z,52.83
2022-11-16T03:32:51.360Z,51.40
2022-11-16T03:35:26.804Z,52.53
2022-11-16T03:37:57.682Z,52.40
2022-11-16T03:40:30.270Z,48.75
2022-11-16T03:43:00.850Z,52.10
2022-11-16T03:45:29.134Z,49.42
2022-11-16T03:47:56.173Z,56.05
2022-11-16T03:50:23.527Z,54.15
2022-11-16T03:52:51.173Z,55.47
2022-11-16T03:55:19.263Z,56.72
2022-11-16T03:57:46.559Z,54.92
2022-11-16T04:00:14.736Z,56.72
2022-11-16T04:02:43.061Z,55.65
2022-11-16T04:05:34.369Z,53.22
2022-11-16T04:08:20.421Z,55.10
2022-11-16T04:11:06.009Z,51.53
2022-11-16T04:13:53.082Z,50.10
2022-11-16T04:16:39.247Z,49.40
2022-11-16T04:19:28.026Z,48.88
2022-11-16T04:22:38.582Z,50.67
2022-11-16T04:25:16.097Z,52.17
2022-11-16T04:28:03.314Z,49.97
2022-11-16T04:30:50.355Z,51.85
2022-11-16T04:33:37.046Z,54.22
2022-11-16T04:36:23.002Z,49.53
2022-11-16T04:38:50.174Z,52.75
2022-11-16T04:41:37.975Z,51.63
2022-11-16T04:44:05.216Z,49.33
2022-11-16T04:46:52.680Z,50.28
2022-11-16T04:49:22.687Z,47.72
2022-11-16T04:51:54.045Z,50.15
2022-11-16T04:54:23.411Z,50.08
2022-11-16T04:56:50.361Z,50.67
2022-11-16T04:59:25.741Z,48.55
2022-11-16T05:02:09.019Z,52.22
2022-11-16T05:04:52.734Z,51.42
2022-11-16T05:07:21.398Z,50.67
2022-11-16T05:09:50.170Z,48.38
2022-11-16T05:12:20.270Z,51.28
2022-11-16T05:14:50.943Z,49.88
2022-11-16T05:17:20.108Z,52.88
2022-11-16T05:20:06.926Z,51.88
2022-11-16T05:22:40.466Z,53.03
2022-11-16T05:25:11.932Z,47.47
2022-11-16T05:27:39.528Z,48.55
2022-11-16T05:30:07.734Z,48.22
2022-11-16T05:32:34.895Z,50.28
2022-11-16T05:35:02.013Z,49.90
2022-11-16T05:37:30.524Z,48.22
2022-11-16T05:39:58.096Z,50.97
2022-11-16T05:42:35.496Z,49.30
2022-11-16T05:45:03.485Z,49.33
2022-11-16T05:47:30.496Z,47.28
2022-11-16T05:49:58.789Z,46.92
2022-11-16T05:52:29.302Z,51.75
2022-11-16T05:55:00.837Z,50.25
2022-11-16T05:57:30.529Z,50.17
2022-11-16T05:59:57.356Z,47.50
2022-11-16T06:02:24.420Z,45.80
2022-11-16T06:04:51.388Z,48.60
2022-11-16T06:07:18.573Z,47.05
2022-11-16T06:09:45.552Z,46.88
2022-11-16T06:12:18.103Z,46.20
2022-11-16T06:14:45.075Z,46.30
2022-11-16T06:17:14.573Z,50.50
2022-11-16T06:19:42.938Z,50.42
2022-11-16T06:22:10.411Z,48.63
2022-11-16T06:24:37.436Z,49.05
2022-11-16T06:27:04.729Z,48.97
2022-11-16T06:29:33.965Z,50.95
2022-11-16T06:32:00.791Z,50.75
2022-11-16T06:34:27.945Z,49.92
2022-11-16T06:36:55.882Z,49.25
2022-11-16T06:39:23.589Z,51.08
2022-11-16T06:41:51.890Z,51.70
2022-11-16T06:44:18.732Z,51.67
2022-11-16T06:46:54.959Z,51.78
2022-11-16T06:49:25.636Z,54.72
2022-11-16T06:51:56.124Z,49.85
2022-11-16T06:54:35.633Z,51.72
2022-11-16T06:57:03.067Z,50.78
2022-11-16T06:59:29.926Z,52.33
2022-11-16T07:01:57.106Z,51.47
2022-11-16T07:04:24.918Z,51.85
2022-11-16T07:06:56.054Z,50.47
2022-11-16T07:09:23.337Z,51.67
2022-11-16T07:11:50.439Z,52.55
2022-11-16T07:14:19.163Z,50.28
2022-11-16T07:16:46.111Z,49.05
2022-11-16T07:19:13.215Z,49.33
2022-11-16T07:21:41.188Z,50.45
2022-11-16T07:24:13.766Z,51.15
2022-11-16T07:26:40.639Z,47.03
2022-11-16T07:29:13.866Z,47.33
2022-11-16T07:31:46.321Z,49.47
2022-11-16T07:34:45.176Z,47.17
2022-11-16T07:37:15.983Z,47.38
2022-11-16T07:39:44.343Z,49.53
2022-11-16T07:42:12.319Z,48.63
2022-11-16T07:44:56.735Z,47.75
2022-11-16T07:47:23.788Z,46.70
2022-11-16T07:49:50.959Z,48.95
2022-11-16T07:52:24.650Z,47.97
2022-11-16T07:54:56.927Z,50.58
2022-11-16T07:59:55.231Z,46.83
2022-11-16T08:02:22.349Z,48.70
2022-11-16T08:04:51.261Z,49.88
2022-11-16T08:07:23.032Z,49.90
2022-11-16T08:09:54.147Z,48.80
2022-11-16T08:12:22.452Z,49.47
2022-11-16T08:14:49.324Z,48.28
2022-11-16T08:17:16.403Z,49.80
2022-11-16T08:19:44.125Z,47.83
2022-11-16T08:22:14.333Z,50.33
2022-11-16T08:24:42.238Z,46.33
2022-11-16T08:27:09.486Z,47.88
2022-11-16T08:29:36.701Z,49.72
2022-11-16T08:34:34.895Z,47.80
2022-11-16T08:37:03.355Z,50.47
2022-11-16T08:39:42.900Z,50.88
2022-11-16T08:42:10.266Z,50.30
2022-11-16T08:44:39.132Z,48.08
2022-11-16T08:47:11.106Z,48.33
2022-11-16T08:49:49.262Z,47.60
2022-11-16T08:52:18.347Z,46.05
2022-11-16T08:54:45.342Z,46.92
2022-11-16T08:57:12.248Z,48.65
2022-11-16T08:59:41.473Z,47.22
2022-11-16T09:02:12.957Z,44.72
2022-11-16T09:04:40.050Z,44.15
2022-11-16T09:07:06.883Z,45.03
2022-11-16T09:09:34.025Z,42.40
2022-11-16T09:12:00.819Z,41.83
2022-11-16T09:14:38.252Z,39.90
2022-11-16T09:17:05.483Z,37.70
2022-11-16T09:19:32.436Z,36.38
2022-11-16T09:21:59.407Z,34.22
2022-11-16T09:24:26.317Z,35.92
2022-11-16T09:26:53.211Z,34.03
2022-11-16T09:29:20.005Z,36.20
2022-11-16T09:31:47.141Z,34.42
2022-11-16T09:34:14.139Z,36.05
2022-11-16T09:36:41.046Z,34.65
2022-11-16T09:41:52.473Z,35.20
2022-11-16T09:44:25.302Z,41.28
2022-11-16T09:46:58.936Z,38.22
2022-11-16T09:49:31.167Z,38.45
2022-11-16T09:52:02.650Z,39.95
2022-11-16T09:54:36.387Z,39.92
2022-11-16T09:57:12.190Z,40.92
2022-11-16T09:59:53.960Z,39.92
2022-11-16T10:02:38.890Z,37.75
2022-11-16T10:05:18.588Z,39.08
2022-11-16T10:10:40.166Z,38.08
2022-11-16T10:13:16.643Z,37.53
2022-11-16T10:16:02.348Z,40.67
2022-11-16T10:18:53.955Z,41.85
2022-11-16T10:21:42.299Z,37.60
2022-11-16T10:24:26.206Z,41.20
2022-11-16T10:27:22.298Z,38.75
2022-11-16T10:30:01.300Z,39.20
2022-11-16T10:32:33.161Z,38.42
2022-11-16T10:35:03.273Z,37.05
2022-11-16T10:37:36.736Z,38.28
2022-11-16T10:40:24.679Z,38.47
2022-11-16T10:43:12.646Z,37.70
2022-11-16T10:45:43.559Z,37.97
2022-11-16T10:48:31.512Z,36.13
2022-11-16T10:50:58.675Z,36.00
2022-11-16T10:53:28.387Z,35.50
2022-11-16T10:56:13.766Z,36.72
2022-11-16T10:58:52.943Z,34.15
2022-11-16T11:01:50.907Z,34.53
2022-11-16T11:04:31.668Z,33.15
2022-11-16T11:07:19.582Z,34.10
2022-11-16T11:09:52.975Z,34.08
2022-11-16T11:12:38.070Z,33.90
2022-11-16T11:15:11.187Z,34.72
2022-11-16T11:17:39.447Z,33.63
2022-11-16T11:20:08.306Z,32.47
2022-11-16T11:22:58.606Z,33.00
2022-11-16T11:25:32.397Z,35.33
2022-11-16T11:28:05.485Z,35.35
2022-11-16T11:30:33.826Z,34.30
2022-11-16T11:33:01.711Z,34.50
2022-11-16T11:35:31.846Z,34.65
2022-11-16T11:38:07.755Z,33.60
2022-11-16T11:43:25.176Z,31.90
2022-11-16T11:46:04.382Z,33.22
2022-11-16T11:49:06.503Z,35.30
2022-11-16T11:51:40.306Z,32.53
2022-11-16T11:54:14.703Z,33.55
2022-11-16T11:56:41.727Z,30.30
2022-11-16T11:59:18.990Z,31.90
2022-11-16T12:01:58.943Z,31.50
2022-11-16T12:05:03.651Z,33.05
2022-11-16T12:07:53.769Z,31.02
2022-11-16T12:10:26.919Z,31.30
2022-11-16T12:13:27.930Z,29.67
2022-11-16T12:16:39.615Z,30.50
2022-11-16T12:19:32.494Z,29.30
2022-11-16T12:22:21.724Z,30.77
2022-11-16T12:25:07.264Z,33.78
2022-11-16T12:28:09.113Z,30.05
2022-11-16T12:31:02.081Z,31.80
2022-11-16T12:33:37.971Z,29.58
2022-11-16T12:36:24.757Z,30.88
2022-11-16T12:39:22.569Z,30.08
2022-11-16T12:41:49.330Z,28.35
2022-11-16T12:44:27.442Z,29.48
2022-11-16T12:49:49.700Z,28.67
2022-11-16T12:52:44.135Z,29.38
2022-11-16T12:55:36.897Z,28.90
2022-11-16T12:58:45.038Z,31.17
2022-11-16T13:01:20.632Z,29.50
2022-11-16T13:03:53.325Z,29.38
2022-11-16T13:06:26.577Z,30.05
2022-11-16T13:09:14.434Z,30.48
2022-11-16T13:11:49.654Z,28.20
2022-11-16T13:14:24.874Z,29.90
2022-11-16T13:16:53.773Z,29.40
2022-11-16T13:19:21.226Z,30.60
2022-11-16T13:21:56.263Z,29.35
2022-11-16T13:24:29.769Z,27.88
2022-11-16T13:27:06.586Z,26.92
2022-11-16T13:30:01.526Z,26.50
2022-11-16T13:32:32.707Z,27.30
2022-11-16T13:35:03.414Z,27.42
2022-11-16T13:37:36.682Z,26.90
2022-11-16T13:40:04.584Z,27.48
2022-11-16T13:42:34.758Z,27.55
2022-11-16T13:45:19.221Z,26.65
2022-11-16T13:47:54.659Z,25.98
2022-11-16T13:50:37.985Z,26.85
2022-11-16T13:56:02.005Z,27.38
2022-11-16T13:58:31.569Z,25.77
2022-11-16T14:03:43.174Z,25.48
2022-11-16T14:06:13.167Z,28.58
2022-11-16T14:08:40.102Z,26.58
2022-11-16T14:11:28.782Z,27.35
2022-11-16T14:13:55.929Z,26.38
2022-11-16T14:16:22.794Z,25.80
2022-11-16T14:18:52.185Z,26.08
2022-11-16T14:24:11.870Z,25.23
2022-11-16T14:26:51.517Z,26.02
2022-11-16T14:29:46.855Z,25.83
2022-11-16T14:32:41.294Z,26.98
2022-11-16T14:35:22.783Z,27.35
2022-11-16T14:37:58.510Z,26.77
2022-11-16T14:40:25.863Z,26.90
2022-11-16T14:43:16.352Z,27.25
2022-11-16T14:45:49.093Z,27.27
2022-11-16T14:48:18.786Z,26.25
2022-11-16T14:50:59.975Z,27.55
2022-11-16T14:53:29.029Z,25.98
2022-11-16T14:56:07.387Z,28.23
2022-11-16T14:58:35.927Z,25.92
2022-11-16T15:01:06.151Z,26.40
2022-11-16T15:03:39.055Z,27.33
2022-11-16T15:06:07.935Z,26.55
2022-11-16T15:08:45.366Z,26.95
2022-11-16T15:11:24.737Z,27.83
2022-11-16T15:13:51.689Z,28.02
2022-11-16T15:16:20.378Z,26.50
2022-11-16T15:19:01.972Z,27.00
2022-11-16T15:21:29.317Z,25.90
2022-11-16T15:26:43.623Z,25.85
2022-11-16T15:29:22.090Z,28.13
2022-11-16T15:31:49.242Z,29.07
2022-11-16T15:34:18.626Z,29.42
2022-11-16T15:39:19.693Z,28.58
2022-11-16T15:41:47.246Z,30.05
2022-11-16T15:44:17.840Z,30.13
2022-11-16T15:46:51.735Z,30.40
2022-11-16T15:49:30.266Z,31.95
2022-11-16T15:51:59.176Z,30.03
2022-11-16T15:54:30.435Z,32.00
2022-11-16T15:57:08.267Z,28.85
2022-11-16T15:59:37.036Z,31.55
2022-11-16T16:02:04.447Z,31.02
2022-11-16T16:04:31.467Z,31.35
2022-11-16T16:07:00.794Z,32.47
2022-11-16T16:09:34.291Z,30.80
2022-11-16T16:12:16.711Z,34.13
2022-11-16T16:14:44.805Z,32.10
2022-11-16T16:17:21.313Z,32.50
2022-11-16T16:19:55.894Z,33.15
2022-11-16T16:22:35.328Z,35.50
2022-11-16T16:27:37.335Z,32.53
2022-11-16T16:30:06.048Z,32.17
2022-11-16T16:32:35.642Z,34.35
2022-11-16T16:35:08.989Z,32.72
2022-11-16T16:37:36.788Z,35.25
2022-11-16T16:40:04.887Z,36.08
2022-11-16T16:42:32.068Z,35.92
2022-11-16T16:45:00.288Z,35.50
2022-11-16T16:47:27.458Z,38.80
2022-11-16T16:49:54.634Z,37.90
2022-11-16T16:52:21.741Z,42.40
2022-11-16T16:54:48.592Z,43.95
2022-11-16T16:57:17.595Z,39.78
2022-11-16T16:59:48.416Z,37.80
2022-11-16T17:02:16.958Z,40.35
2022-11-16T17:04:46.716Z,39.25
2022-11-16T17:07:15.461Z,39.80
2022-11-16T17:09:42.869Z,40.70
2022-11-16T17:12:11.090Z,43.95
2022-11-16T17:14:37.910Z,42.05
2022-11-16T17:17:05.378Z,43.40
2022-11-16T17:19:32.573Z,41.85
2022-11-16T17:22:00.035Z,40.17
2022-11-16T17:24:26.981Z,39.28
2022-11-16T17:26:53.886Z,41.03
2022-11-16T17:29:20.807Z,40.00
2022-11-16T17:31:47.690Z,40.40
2022-11-16T17:34:14.894Z,39.75
2022-11-16T17:36:42.760Z,38.95
2022-11-16T17:39:09.907Z,39.47
2022-11-16T17:41:37.377Z,40.45
2022-11-16T17:44:04.934Z,40.60
2022-11-16T17:46:31.990Z,42.47
2022-11-16T17:48:59.202Z,43.13
2022-11-16T17:51:27.911Z,42.63
2022-11-16T17:53:54.899Z,42.65
2022-11-16T17:56:26.116Z,44.13
2022-11-16T17:58:55.133Z,42.53
2022-11-16T18:01:22.980Z,43.47
2022-11-16T18:03:50.142Z,42.45
2022-11-16T18:06:19.443Z,44.25
2022-11-16T18:08:46.654Z,46.58
2022-11-16T18:11:18.810Z,48.70
2022-11-16T18:13:47.343Z,48.08
2022-11-16T18:16:19.694Z,51.95
2022-11-16T18:18:48.346Z,58.63
2022-11-16T18:21:20.740Z,67.23
2022-11-16T18:23:48.527Z,62.83
2022-11-16T18:26:18.867Z,58.80
2022-11-16T18:28:46.619Z,60.38
2022-11-16T18:31:17.068Z,54.03
2022-11-16T18:33:44.153Z,52.60
2022-11-16T18:36:12.478Z,55.58
2022-11-16T18:38:39.554Z,49.95
2022-11-16T18:41:12.242Z,49.60
2022-11-16T18:43:40.865Z,48.80
2022-11-16T18:46:08.126Z,46.85
2022-11-16T18:48:35.179Z,45.85
2022-11-16T18:51:04.632Z,46.00
2022-11-16T18:53:32.810Z,47.08
2022-11-16T18:56:00.059Z,44.90
2022-11-16T19:01:17.778Z,48.33
2022-11-16T19:03:44.770Z,44.63
2022-11-16T19:06:11.841Z,45.05
2022-11-16T19:08:40.470Z,45.97
2022-11-16T19:11:11.766Z,44.83
2022-11-16T19:13:41.035Z,43.63
2022-11-16T19:16:09.445Z,45.08
2022-11-16T19:18:37.668Z,47.67
2022-11-16T19:21:05.756Z,45.67
2022-11-16T19:23:37.820Z,48.30
2022-11-16T19:26:05.448Z,47.00
2022-11-16T19:28:37.079Z,42.63
2022-11-16T19:31:15.307Z,43.05
2022-11-16T19:33:43.055Z,43.85
2022-11-16T19:36:15.842Z,41.20
2022-11-16T19:38:44.470Z,41.50
2022-11-16T19:41:12.608Z,42.08
2022-11-16T19:43:39.654Z,41.92
2022-11-16T19:46:11.999Z,41.70
2022-11-16T19:48:39.276Z,45.58
2022-11-16T19:51:15.032Z,46.90
2022-11-16T19:53:42.572Z,45.85
2022-11-16T19:56:14.868Z,44.08
2022-11-16T19:58:42.759Z,41.35
2022-11-16T20:01:15.860Z,44.20
2022-11-16T20:03:43.661Z,42.65
2022-11-16T20:06:15.260Z,42.80
2022-11-16T20:08:46.341Z,43.95
2022-11-16T20:11:15.511Z,44.28
2022-11-16T20:13:42.833Z,45.38
2022-11-16T20:16:12.387Z,49.80
2022-11-16T20:21:08.896Z,43.90
2022-11-16T20:23:36.337Z,43.22
2022-11-16T20:26:09.523Z,43.15
2022-11-16T20:28:41.803Z,45.33
2022-11-16T20:31:15.271Z,43.83
2022-11-16T20:33:43.124Z,43.08
2022-11-16T20:36:11.780Z,45.08
2022-11-16T20:38:39.569Z,45.85
2022-11-16T20:41:14.170Z,43.25
2022-11-16T20:43:42.242Z,44.83
2022-11-16T20:46:11.121Z,43.70
2022-11-16T20:48:39.815Z,45.00
2022-11-16T20:51:08.037Z,45.60
2022-11-16T20:53:35.621Z,44.78
2022-11-16T20:56:04.244Z,48.80
2022-11-16T20:58:32.298Z,50.90
2022-11-16T21:01:01.016Z,45.25
2022-11-16T21:03:28.679Z,44.17
2022-11-16T21:05:55.887Z,46.95
2022-11-16T21:08:24.946Z,45.88
2022-11-16T21:10:52.162Z,44.65
2022-11-16T21:13:39.092Z,43.70
2022-11-16T21:16:11.507Z,43.85
2022-11-16T21:18:41.714Z,45.05
2022-11-16T21:21:12.448Z,47.25
2022-11-16T21:23:43.286Z,53.30
2022-11-16T21:26:15.290Z,47.95
2022-11-16T21:28:45.332Z,47.33
2022-11-16T21:31:18.094Z,45.22
2022-11-16T21:33:45.966Z,41.85
2022-11-16T21:36:16.019Z,42.00
2022-11-16T21:38:43.508Z,39.72
2022-11-16T21:41:15.617Z,38.20
2022-11-16T21:43:42.602Z,37.22
2022-11-16T21:46:18.015Z,38.40
2022-11-16T21:48:46.949Z,47.05
2022-11-16T21:51:18.859Z,39.55
2022-11-16T21:53:46.449Z,37.25
2022-11-16T21:56:18.099Z,38.10
2022-11-16T21:58:46.125Z,37.08
2022-11-16T22:01:15.664Z,36.78
2022-11-16T22:06:31.994Z,38.88
2022-11-16T22:08:59.239Z,37.58
2022-11-16T22:11:26.103Z,37.20
2022-11-16T22:13:53.064Z,36.05
2022-11-16T22:16:23.367Z,34.53
2022-11-16T22:18:50.839Z,45.53
2022-11-16T22:21:18.032Z,38.72
2022-11-16T22:23:45.069Z,38.35
2022-11-16T22:26:13.554Z,37.67
2022-11-16T22:28:40.758Z,37.53
2022-11-16T22:31:15.181Z,35.80
2022-11-16T22:33:42.401Z,37.40
2022-11-16T22:36:10.114Z,35.97
2022-11-16T22:38:37.085Z,34.28
2022-11-16T22:41:04.632Z,40.60
2022-11-16T22:43:32.605Z,32.97
2022-11-16T22:46:01.995Z,36.70
2022-11-16T22:48:33.480Z,33.25
2022-11-16T22:51:21.531Z,35.42
2022-11-16T22:53:52.914Z,34.03
2022-11-16T22:56:20.252Z,32.03
2022-11-16T22:58:47.180Z,37.63
2022-11-16T23:01:14.264Z,35.65
2022-11-16T23:03:41.324Z,35.72
2022-11-16T23:06:08.979Z,34.15
2022-11-16T23:08:36.734Z,37.70
2022-11-16T23:11:36.003Z,33.63
2022-11-16T23:14:23.420Z,31.55
2022-11-16T23:16:50.867Z,33.33
2022-11-16T23:19:38.154Z,33.33
2022-11-16T23:22:23.739Z,30.90
2022-11-16T23:25:09.464Z,30.75
2022-11-16T23:27:44.947Z,28.70
2022-11-16T23:30:13.455Z,30.13
2022-11-16T23:32:41.785Z,28.92
2022-11-16T23:35:09.808Z,31.42
2022-11-16T23:37:53.998Z,33.58
2022-11-16T23:40:22.955Z,30.45
2022-11-16T23:43:08.568Z,30.00
2022-11-16T23:45:35.930Z,32.33
2022-11-16T23:48:02.802Z,32.88
2022-11-16T23:50:29.929Z,33.60
2022-11-16T23:52:56.918Z,35.13
2022-11-16T23:55:24.271Z,36.97
2022-11-16T23:57:51.407Z,34.90
